createdAt,value
2023-02-14T00:00:33.517Z,16.23
2023-02-14T00:03:00.759Z,17.00
2023-02-14T00:05:27.918Z,16.60
2023-02-14T00:07:55.140Z,16.00
2023-02-14T00:10:22.302Z,16.38
2023-02-14T00:12:49.467Z,17.13
2023-02-14T00:15:22.583Z,16.17
2023-02-14T00:17:54.626Z,15.88
2023-02-14T00:20:25.030Z,14.02
2023-02-14T00:22:52.187Z,13.93
2023-02-14T00:25:19.422Z,14.20
2023-02-14T00:27:46.639Z,14.52
2023-02-14T00:30:13.978Z,13.57
2023-02-14T00:32:41.274Z,14.45
2023-02-14T00:35:08.659Z,15.02
2023-02-14T00:37:35.820Z,13.93
2023-02-14T00:40:02.981Z,13.73
2023-02-14T00:42:30.286Z,14.50
2023-02-14T00:44:57.437Z,13.57
2023-02-14T00:47:24.622Z,15.40
2023-02-14T00:49:51.785Z,15.48
2023-02-14T00:52:18.930Z,15.25
2023-02-14T00:54:46.091Z,14.50
2023-02-14T00:57:13.242Z,14.35
2023-02-14T00:59:40.542Z,12.80
2023-02-14T01:02:07.736Z,16.33
2023-02-14T01:04:35.093Z,17.52
2023-02-14T01:07:02.242Z,17.77
2023-02-14T01:09:29.401Z,17.83
2023-02-14T01:11:56.537Z,15.30
2023-02-14T01:14:23.664Z,16.02
2023-02-14T01:16:50.863Z,15.77
2023-02-14T01:19:18.000Z,14.80
2023-02-14T01:21:45.214Z,15.98
2023-02-14T01:24:12.368Z,17.05
2023-02-14T01:26:39.834Z,16.90
2023-02-14T01:29:07.106Z,17.00
2023-02-14T01:31:34.692Z,15.52
2023-02-14T01:34:02.053Z,14.93
2023-02-14T01:36:30.211Z,14.75
2023-02-14T01:38:59.008Z,15.15
2023-02-14T01:41:26.681Z,14.10
2023-02-14T01:43:55.757Z,13.40
2023-02-14T01:46:23.028Z,15.13
2023-02-14T01:48:50.306Z,16.38
2023-02-14T01:51:17.648Z,17.95
2023-02-14T01:53:45.096Z,18.35
2023-02-14T01:56:17.229Z,18.10
2023-02-14T01:58:45.140Z,18.33
2023-02-14T02:01:15.696Z,16.38
2023-02-14T02:03:51.277Z,17.77
2023-02-14T02:06:27.186Z,17.75
2023-02-14T02:09:10.159Z,18.55
2023-02-14T02:11:37.998Z,17.40
2023-02-14T02:14:05.505Z,18.98
2023-02-14T02:16:51.471Z,16.60
2023-02-14T02:19:27.744Z,15.40
2023-02-14T02:22:09.929Z,18.60
2023-02-14T02:24:47.422Z,17.20
2023-02-14T02:27:33.439Z,19.35
2023-02-14T02:30:09.373Z,20.38
2023-02-14T02:32:40.615Z,19.75
2023-02-14T02:35:26.149Z,19.40
2023-02-14T02:37:59.153Z,20.33
2023-02-14T02:40:30.589Z,18.95
2023-02-14T02:43:06.938Z,20.73
2023-02-14T02:45:37.157Z,20.70
2023-02-14T02:48:07.894Z,19.08
2023-02-14T02:50:57.172Z,19.98
2023-02-14T02:53:36.657Z,18.95
2023-02-14T02:56:23.280Z,19.73
2023-02-14T02:59:01.458Z,19.63
2023-02-14T03:01:32.592Z,17.73
2023-02-14T03:04:19.212Z,19.70
2023-02-14T03:06:46.612Z,18.98
2023-02-14T03:09:34.829Z,20.80
2023-02-14T03:12:01.957Z,20.73
2023-02-14T03:14:36.272Z,20.43
2023-02-14T03:17:05.733Z,20.50
2023-02-14T03:20:09.031Z,20.67
2023-02-14T03:22:42.097Z,19.35
2023-02-14T03:25:17.364Z,19.25
2023-02-14T03:27:55.817Z,19.25
2023-02-14T03:30:37.151Z,19.20
2023-02-14T03:33:09.641Z,20.58
2023-02-14T03:35:38.109Z,18.83
2023-02-14T03:38:09.496Z,20.35
2023-02-14T03:40:36.618Z,18.30
2023-02-14T03:43:08.268Z,17.70
2023-02-14T03:45:37.202Z,19.70
2023-02-14T03:48:05.312Z,20.60
2023-02-14T03:50:32.548Z,19.73
2023-02-14T03:52:59.683Z,18.20
2023-02-14T03:55:37.238Z,18.92
2023-02-14T03:58:07.327Z,19.50
2023-02-14T04:00:34.484Z,17.80
2023-02-14T04:03:02.746Z,17.77
2023-02-14T04:05:29.954Z,16.57
2023-02-14T04:07:58.610Z,17.00
2023-02-14T04:10:26.136Z,16.73
2023-02-14T04:12:53.931Z,15.85
2023-02-14T04:15:21.118Z,17.60
2023-02-14T04:18:07.233Z,17.67
2023-02-14T04:20:34.400Z,17.55
2023-02-14T04:23:03.408Z,19.25
2023-02-14T04:25:30.832Z,18.15
2023-02-14T04:27:58.002Z,17.35
2023-02-14T04:30:25.247Z,20.33
2023-02-14T04:32:52.449Z,21.55
2023-02-14T04:35:19.636Z,20.33
2023-02-14T04:37:46.813Z,19.42
2023-02-14T04:40:17.288Z,20.60
2023-02-14T04:42:45.200Z,21.17
2023-02-14T04:45:12.346Z,20.33
2023-02-14T04:47:39.557Z,18.75
2023-02-14T04:50:07.072Z,22.42
2023-02-14T04:52:34.283Z,20.75
2023-02-14T04:55:01.480Z,21.20
2023-02-14T04:57:28.636Z,20.15
2023-02-14T04:59:55.792Z,20.67
2023-02-14T05:02:22.987Z,18.80
2023-02-14T05:04:50.119Z,18.30
2023-02-14T05:07:17.371Z,19.17
2023-02-14T05:09:44.491Z,20.48
2023-02-14T05:12:11.772Z,20.85
2023-02-14T05:14:38.926Z,20.13
2023-02-14T05:17:06.121Z,23.08
2023-02-14T05:19:33.286Z,23.60
2023-02-14T05:22:00.422Z,21.30
2023-02-14T05:24:27.673Z,20.15
2023-02-14T05:26:55.528Z,22.05
2023-02-14T05:29:22.708Z,21.92
2023-02-14T05:31:49.903Z,21.70
2023-02-14T05:34:17.213Z,22.00
2023-02-14T05:36:44.388Z,22.67
2023-02-14T05:39:14.552Z,24.23
2023-02-14T05:41:41.939Z,25.33
2023-02-14T05:44:09.274Z,23.83
2023-02-14T05:46:36.568Z,22.00
2023-02-14T05:49:04.182Z,22.70
2023-02-14T05:51:31.444Z,21.07
2023-02-14T05:54:00.244Z,22.33
2023-02-14T05:56:27.785Z,21.65
2023-02-14T05:58:54.971Z,22.45
2023-02-14T06:01:22.434Z,23.60
2023-02-14T06:03:49.587Z,24.13
2023-02-14T06:06:16.707Z,24.80
2023-02-14T06:08:43.963Z,22.27
2023-02-14T06:11:11.120Z,21.85
2023-02-14T06:13:40.332Z,22.40
2023-02-14T06:16:07.618Z,20.83
2023-02-14T06:18:35.041Z,22.00
2023-02-14T06:21:02.503Z,23.48
2023-02-14T06:23:29.867Z,23.15
2023-02-14T06:25:57.021Z,23.05
2023-02-14T06:28:24.163Z,20.52
2023-02-14T06:30:51.419Z,23.27
2023-02-14T06:33:18.679Z,23.13
2023-02-14T06:35:45.852Z,21.55
2023-02-14T06:38:13.006Z,21.70
2023-02-14T06:40:40.141Z,20.58
2023-02-14T06:43:07.353Z,21.77
2023-02-14T06:45:34.552Z,22.38
2023-02-14T06:48:01.704Z,22.60
2023-02-14T06:50:28.879Z,20.73
2023-02-14T06:52:56.039Z,22.20
2023-02-14T06:55:23.232Z,20.83
2023-02-14T06:57:50.380Z,22.05
2023-02-14T07:00:17.811Z,20.90
2023-02-14T07:02:45.073Z,20.92
2023-02-14T07:05:12.346Z,22.73
2023-02-14T07:07:39.547Z,22.70
2023-02-14T07:10:07.047Z,21.05
2023-02-14T07:12:34.963Z,20.90
2023-02-14T07:15:02.157Z,20.98
2023-02-14T07:17:29.479Z,22.70
2023-02-14T07:19:56.649Z,24.37
2023-02-14T07:22:23.815Z,24.23
2023-02-14T07:24:51.254Z,25.35
2023-02-14T07:27:18.540Z,26.10
2023-02-14T07:29:45.759Z,23.85
2023-02-14T07:32:13.026Z,24.13
2023-02-14T07:34:40.343Z,23.23
2023-02-14T07:37:07.539Z,24.50
2023-02-14T07:39:34.692Z,23.83
2023-02-14T07:42:01.880Z,22.25
2023-02-14T07:44:29.016Z,22.73
2023-02-14T07:46:56.341Z,23.58
2023-02-14T07:49:23.514Z,22.67
2023-02-14T07:51:50.687Z,21.25
2023-02-14T07:54:19.662Z,22.90
2023-02-14T07:56:47.446Z,23.50
2023-02-14T07:59:14.654Z,22.52
2023-02-14T08:01:41.879Z,23.35
2023-02-14T08:04:09.071Z,22.42
2023-02-14T08:06:36.260Z,22.30
2023-02-14T08:09:03.510Z,22.20
2023-02-14T08:11:49.190Z,24.50
2023-02-14T08:14:16.369Z,23.42
2023-02-14T08:16:43.550Z,23.75
2023-02-14T08:19:10.970Z,21.40
2023-02-14T08:21:38.162Z,22.02
2023-02-14T08:24:05.356Z,22.08
2023-02-14T08:26:32.589Z,23.35
2023-02-14T08:28:59.764Z,23.23
2023-02-14T08:31:35.189Z,21.83
2023-02-14T08:34:03.073Z,23.77
2023-02-14T08:36:30.229Z,23.20
2023-02-14T08:38:57.790Z,22.50
2023-02-14T08:41:25.575Z,22.75
2023-02-14T08:43:52.770Z,24.10
2023-02-14T08:46:19.956Z,21.40
2023-02-14T08:48:47.232Z,22.73
2023-02-14T08:51:15.042Z,25.92
2023-02-14T08:53:42.293Z,24.25
2023-02-14T08:56:10.602Z,23.33
2023-02-14T08:58:38.787Z,21.75
2023-02-14T09:01:09.827Z,22.23
2023-02-14T09:03:38.438Z,23.25
2023-02-14T09:06:06.480Z,21.77
2023-02-14T09:08:35.088Z,22.02
2023-02-14T09:11:12.237Z,21.67
2023-02-14T09:13:39.505Z,23.55
2023-02-14T09:16:07.063Z,23.40
2023-02-14T09:18:34.482Z,23.42
2023-02-14T09:21:02.102Z,23.50
2023-02-14T09:23:29.492Z,20.75
2023-02-14T09:26:03.595Z,21.27
2023-02-14T09:28:30.793Z,23.30
2023-02-14T09:30:58.372Z,22.95
2023-02-14T09:33:49.087Z,21.60
2023-02-14T09:36:34.937Z,23.73
2023-02-14T09:39:02.096Z,22.67
2023-02-14T09:41:34.216Z,21.10
2023-02-14T09:44:02.972Z,21.55
2023-02-14T09:46:30.615Z,22.35
2023-02-14T09:48:57.819Z,21.88
2023-02-14T09:51:25.870Z,22.08
2023-02-14T09:53:55.819Z,22.25
2023-02-14T09:56:50.695Z,21.38
2023-02-14T09:59:20.757Z,19.93
2023-02-14T10:01:52.283Z,21.95
2023-02-14T10:04:35.450Z,19.80
2023-02-14T10:07:21.869Z,22.80
2023-02-14T10:10:08.741Z,20.02
2023-02-14T10:12:37.619Z,19.55
2023-02-14T10:15:24.618Z,21.15
2023-02-14T10:18:00.778Z,22.27
2023-02-14T10:20:35.864Z,22.00
2023-02-14T10:23:12.140Z,22.30
2023-02-14T10:25:44.680Z,21.95
2023-02-14T10:28:13.593Z,23.30
2023-02-14T10:30:42.854Z,22.10
2023-02-14T10:33:16.416Z,21.70
2023-02-14T10:35:53.631Z,20.83
2023-02-14T10:38:41.925Z,22.63
2023-02-14T10:41:15.319Z,19.48
2023-02-14T10:44:01.165Z,23.27
2023-02-14T10:46:32.729Z,21.73
2023-02-14T10:48:59.887Z,21.98
2023-02-14T10:51:38.053Z,19.27
2023-02-14T10:54:20.369Z,21.27
2023-02-14T10:56:50.667Z,20.20
2023-02-14T10:59:23.399Z,19.50
2023-02-14T11:01:51.718Z,19.38
2023-02-14T11:04:18.912Z,18.55
2023-02-14T11:06:49.127Z,18.80
2023-02-14T11:09:17.040Z,19.23
2023-02-14T11:11:56.773Z,19.58
2023-02-14T11:14:25.532Z,18.87
2023-02-14T11:16:53.097Z,17.75
2023-02-14T11:19:24.859Z,17.58
2023-02-14T11:21:52.263Z,18.15
2023-02-14T11:24:33.124Z,17.45
2023-02-14T11:27:04.405Z,17.17
2023-02-14T11:29:32.519Z,17.00
2023-02-14T11:32:07.252Z,17.83
2023-02-14T11:34:36.775Z,19.08
2023-02-14T11:37:04.374Z,18.10
2023-02-14T11:39:32.455Z,18.35
2023-02-14T11:42:00.921Z,17.40
2023-02-14T11:44:29.051Z,18.70
2023-02-14T11:46:56.987Z,17.90
2023-02-14T11:49:28.686Z,19.48
2023-02-14T11:51:56.197Z,18.05
2023-02-14T11:54:34.727Z,18.65
2023-02-14T11:57:02.971Z,17.95
2023-02-14T11:59:31.896Z,18.63
2023-02-14T12:01:59.750Z,18.63
2023-02-14T12:04:30.845Z,18.45
2023-02-14T12:07:11.137Z,17.25
2023-02-14T12:09:41.352Z,18.65
2023-02-14T12:12:19.192Z,15.87
2023-02-14T12:14:46.989Z,17.10
2023-02-14T12:17:23.240Z,18.80
2023-02-14T12:19:59.992Z,19.52
2023-02-14T12:22:28.650Z,18.98
2023-02-14T12:25:04.407Z,18.45
2023-02-14T12:27:44.627Z,16.80
2023-02-14T12:30:22.701Z,20.00
2023-02-14T12:32:50.646Z,19.02
2023-02-14T12:35:38.093Z,18.45
2023-02-14T12:38:14.219Z,18.77
2023-02-14T12:40:44.267Z,18.05
2023-02-14T12:43:20.444Z,17.50
2023-02-14T12:45:53.537Z,17.70
2023-02-14T12:48:24.367Z,17.20
2023-02-14T12:50:55.367Z,17.23
2023-02-14T12:53:33.873Z,16.85
2023-02-14T12:56:06.922Z,16.67
2023-02-14T12:58:50.910Z,17.52
2023-02-14T13:01:28.380Z,16.88
2023-02-14T13:04:19.780Z,18.25
2023-02-14T13:07:09.293Z,18.50
2023-02-14T13:09:52.417Z,18.10
2023-02-14T13:12:25.714Z,17.52
2023-02-14T13:15:11.626Z,17.33
2023-02-14T13:17:38.820Z,16.83
2023-02-14T13:20:08.974Z,16.30
2023-02-14T13:22:36.122Z,17.45
2023-02-14T13:25:07.472Z,17.40
2023-02-14T13:27:38.385Z,16.90
2023-02-14T13:30:06.316Z,17.60
2023-02-14T13:32:34.364Z,17.90
2023-02-14T13:35:01.491Z,17.40
2023-02-14T13:37:28.655Z,17.10
2023-02-14T13:40:06.138Z,16.75
2023-02-14T13:42:48.846Z,18.15
2023-02-14T13:45:40.012Z,16.52
2023-02-14T13:48:26.226Z,17.70
2023-02-14T13:50:57.812Z,17.63
2023-02-14T13:53:31.674Z,15.90
2023-02-14T13:55:59.133Z,16.58
2023-02-14T13:58:26.587Z,16.60
2023-02-14T14:00:53.918Z,17.05
2023-02-14T14:03:21.040Z,17.05
2023-02-14T14:05:48.944Z,16.60
2023-02-14T14:08:22.454Z,15.47
2023-02-14T14:10:56.356Z,16.95
2023-02-14T14:13:46.579Z,15.93
2023-02-14T14:16:20.160Z,16.25
2023-02-14T14:18:47.324Z,16.27
2023-02-14T14:21:15.886Z,15.00
2023-02-14T14:23:43.096Z,15.50
2023-02-14T14:26:45.578Z,16.75
2023-02-14T14:29:20.007Z,17.23
2023-02-14T14:31:47.609Z,15.98
2023-02-14T14:34:19.490Z,16.17
2023-02-14T14:36:46.972Z,14.90
2023-02-14T14:39:15.192Z,16.92
2023-02-14T14:41:44.220Z,15.13
2023-02-14T14:44:11.475Z,16.33
2023-02-14T14:46:38.705Z,16.55
2023-02-14T14:49:09.543Z,16.42
2023-02-14T14:51:36.739Z,17.52
2023-02-14T14:54:05.830Z,17.48
2023-02-14T14:56:36.753Z,17.92
2023-02-14T14:59:17.253Z,18.05
2023-02-14T15:01:44.773Z,16.75
2023-02-14T15:04:12.809Z,18.20
2023-02-14T15:06:40.890Z,18.00
2023-02-14T15:09:19.670Z,17.80
2023-02-14T15:12:06.211Z,18.83
2023-02-14T15:14:34.930Z,17.92
2023-02-14T15:17:05.515Z,17.88
2023-02-14T15:19:45.316Z,18.05
2023-02-14T15:22:20.200Z,18.30
2023-02-14T15:24:47.378Z,18.00
2023-02-14T15:27:18.146Z,18.10
2023-02-14T15:29:58.659Z,19.73
2023-02-14T15:32:26.225Z,19.35
2023-02-14T15:34:53.399Z,19.92
2023-02-14T15:37:21.476Z,21.38
2023-02-14T15:39:52.619Z,20.87
2023-02-14T15:42:25.950Z,19.65
2023-02-14T15:45:11.894Z,20.42
2023-02-14T15:47:39.048Z,21.13
2023-02-14T15:50:13.386Z,19.90
2023-02-14T15:52:41.328Z,19.83
2023-02-14T15:55:09.432Z,19.95
2023-02-14T15:57:36.588Z,20.05
2023-02-14T16:00:11.557Z,19.02
2023-02-14T16:02:41.160Z,19.52
2023-02-14T16:05:24.217Z,20.85
2023-02-14T16:07:57.482Z,20.88
2023-02-14T16:10:24.721Z,20.75
2023-02-14T16:12:57.503Z,20.27
2023-02-14T16:15:26.659Z,20.80
2023-02-14T16:17:53.885Z,21.03
2023-02-14T16:20:21.258Z,21.33
2023-02-14T16:22:48.489Z,21.30
2023-02-14T16:25:16.269Z,20.45
2023-02-14T16:27:43.538Z,21.20
2023-02-14T16:30:19.980Z,20.73
2023-02-14T16:32:51.347Z,22.13
2023-02-14T16:35:19.213Z,20.70
2023-02-14T16:37:47.436Z,20.20
2023-02-14T16:40:15.004Z,20.17
2023-02-14T16:42:42.341Z,20.20
2023-02-14T16:45:15.237Z,21.10
2023-02-14T16:47:42.392Z,22.30
2023-02-14T16:50:09.816Z,21.23
2023-02-14T16:52:36.939Z,20.65
2023-02-14T16:55:04.766Z,21.53
2023-02-14T16:57:40.007Z,19.23
2023-02-14T17:00:09.370Z,21.50
2023-02-14T17:02:36.578Z,20.92
2023-02-14T17:05:03.897Z,22.25
2023-02-14T17:07:31.820Z,20.30
2023-02-14T17:10:00.637Z,21.20
2023-02-14T17:12:29.040Z,21.13
2023-02-14T17:14:56.956Z,20.77
2023-02-14T17:17:24.129Z,20.65
2023-02-14T17:19:52.820Z,20.15
2023-02-14T17:22:20.259Z,20.35
2023-02-14T17:24:47.432Z,19.60
2023-02-14T17:27:14.740Z,20.83
2023-02-14T17:29:41.894Z,20.20
2023-02-14T17:32:12.305Z,21.60
2023-02-14T17:34:40.810Z,20.80
2023-02-14T17:37:08.038Z,20.67
2023-02-14T17:39:35.190Z,19.95
2023-02-14T17:42:02.328Z,20.75
2023-02-14T17:44:32.463Z,20.05
2023-02-14T17:46:59.671Z,20.90
2023-02-14T17:49:26.936Z,20.55
2023-02-14T17:51:54.710Z,20.17
2023-02-14T17:54:21.829Z,20.90
2023-02-14T17:56:49.021Z,20.50
2023-02-14T17:59:16.160Z,19.85
2023-02-14T18:01:43.758Z,19.65
2023-02-14T18:04:10.939Z,19.77
2023-02-14T18:06:38.147Z,20.45
2023-02-14T18:09:05.627Z,21.08
2023-02-14T18:11:32.764Z,20.35
2023-02-14T18:14:01.636Z,19.55
2023-02-14T18:16:28.888Z,18.80
2023-02-14T18:18:56.138Z,20.25
2023-02-14T18:21:24.578Z,20.33
2023-02-14T18:23:51.975Z,20.77
2023-02-14T18:26:19.236Z,20.35
2023-02-14T18:28:46.595Z,20.17
2023-02-14T18:31:14.713Z,20.40
2023-02-14T18:33:42.008Z,20.75
2023-02-14T18:36:11.958Z,21.77
2023-02-14T18:38:39.543Z,21.45
2023-02-14T18:41:07.083Z,22.20
2023-02-14T18:43:34.241Z,22.15
2023-02-14T18:46:08.695Z,20.42
2023-02-14T18:48:36.059Z,22.00
2023-02-14T18:51:09.814Z,20.13
2023-02-14T18:53:37.458Z,21.43
2023-02-14T18:56:05.661Z,22.27
2023-02-14T18:58:33.409Z,21.08
2023-02-14T19:01:07.435Z,22.23
2023-02-14T19:03:34.728Z,21.60
2023-02-14T19:06:01.883Z,21.63
2023-02-14T19:08:31.407Z,20.92
2023-02-14T19:10:58.941Z,22.00
2023-02-14T19:13:29.224Z,20.05
2023-02-14T19:15:56.591Z,20.60
2023-02-14T19:18:25.705Z,20.48
2023-02-14T19:20:53.055Z,20.85
2023-02-14T19:23:20.320Z,21.58
2023-02-14T19:25:48.261Z,21.00
2023-02-14T19:28:15.661Z,21.40
2023-02-14T19:30:42.889Z,19.90
2023-02-14T19:33:10.027Z,21.25
2023-02-14T19:35:37.220Z,20.00
2023-02-14T19:38:04.389Z,19.38
2023-02-14T19:40:31.581Z,20.17
2023-02-14T19:42:58.944Z,21.60
2023-02-14T19:45:27.372Z,20.88
2023-02-14T19:47:54.556Z,21.13
2023-02-14T19:50:22.140Z,20.15
2023-02-14T19:52:49.352Z,20.50
2023-02-14T19:55:23.115Z,20.58
2023-02-14T19:57:50.393Z,20.60
2023-02-14T20:00:17.755Z,21.67
2023-02-14T20:02:48.157Z,21.65
2023-02-14T20:05:18.452Z,21.63
2023-02-14T20:07:49.167Z,22.17
2023-02-14T20:10:16.454Z,19.83
2023-02-14T20:12:43.582Z,21.33
2023-02-14T20:15:11.108Z,22.17
2023-02-14T20:17:38.349Z,21.15
2023-02-14T20:20:13.244Z,20.58
2023-02-14T20:22:41.117Z,19.90
2023-02-14T20:25:09.659Z,22.60
2023-02-14T20:27:37.084Z,21.25
2023-02-14T20:30:04.980Z,22.10
2023-02-14T20:32:32.849Z,23.33
2023-02-14T20:35:00.046Z,21.70
2023-02-14T20:37:27.670Z,21.77
2023-02-14T20:39:54.821Z,21.67
2023-02-14T20:42:22.348Z,21.77
2023-02-14T20:44:49.915Z,22.48
2023-02-14T20:47:17.484Z,21.60
2023-02-14T20:49:44.846Z,22.05
2023-02-14T20:52:12.640Z,22.45
2023-02-14T20:54:39.999Z,21.83
2023-02-14T20:57:07.266Z,24.70
2023-02-14T20:59:34.414Z,23.50
2023-02-14T21:02:01.571Z,22.05
2023-02-14T21:04:28.903Z,23.85
2023-02-14T21:06:57.853Z,24.05
2023-02-14T21:09:25.193Z,24.13
2023-02-14T21:11:54.131Z,23.67
2023-02-14T21:14:21.375Z,25.08
2023-02-14T21:16:48.591Z,24.35
2023-02-14T21:19:15.848Z,23.40
2023-02-14T21:21:43.017Z,24.20
2023-02-14T21:24:14.678Z,22.88
2023-02-14T21:26:42.134Z,24.25
2023-02-14T21:29:09.440Z,24.33
2023-02-14T21:31:36.767Z,23.27
2023-02-14T21:34:04.894Z,24.40
2023-02-14T21:36:32.636Z,21.88
2023-02-14T21:39:00.224Z,23.73
2023-02-14T21:41:30.795Z,24.80
2023-02-14T21:43:58.327Z,23.25
2023-02-14T21:46:27.649Z,23.87
2023-02-14T21:49:13.778Z,23.30
2023-02-14T21:51:41.099Z,24.20
2023-02-14T21:54:08.469Z,23.05
2023-02-14T21:56:35.819Z,23.73
2023-02-14T21:59:02.966Z,23.45
2023-02-14T22:01:31.476Z,21.95
2023-02-14T22:03:59.292Z,22.73
2023-02-14T22:06:26.883Z,22.70
2023-02-14T22:08:54.952Z,21.17
2023-02-14T22:11:22.261Z,24.15
2023-02-14T22:13:49.429Z,22.45
2023-02-14T22:16:17.232Z,21.90
2023-02-14T22:18:45.898Z,23.63
2023-02-14T22:21:16.473Z,24.23
2023-02-14T22:23:43.656Z,24.33
2023-02-14T22:26:15.005Z,25.07
2023-02-14T22:28:42.418Z,25.35
2023-02-14T22:31:09.891Z,25.50
2023-02-14T22:33:37.931Z,26.02
2023-02-14T22:36:05.581Z,23.50
2023-02-14T22:38:32.720Z,24.20
2023-02-14T22:41:05.110Z,24.55
2023-02-14T22:43:32.260Z,24.70
2023-02-14T22:46:06.256Z,25.10
2023-02-14T22:48:34.037Z,25.52
2023-02-14T22:51:11.005Z,26.17
2023-02-14T22:53:38.224Z,24.97
2023-02-14T22:56:15.762Z,24.77
2023-02-14T22:58:43.025Z,24.33
2023-02-14T23:01:17.253Z,25.45
2023-02-14T23:03:44.855Z,24.35
2023-02-14T23:06:12.029Z,24.60
2023-02-14T23:08:42.623Z,26.13
2023-02-14T23:11:13.281Z,26.08
2023-02-14T23:13:59.087Z,25.70
2023-02-14T23:16:44.803Z,23.90
2023-02-14T23:19:33.967Z,26.60
2023-02-14T23:22:08.473Z,26.50
2023-02-14T23:24:35.664Z,25.85
2023-02-14T23:27:02.897Z,26.42
2023-02-14T23:29:30.148Z,25.73
2023-02-14T23:31:57.406Z,25.58
2023-02-14T23:34:28.118Z,25.55
2023-02-14T23:36:55.305Z,26.23
2023-02-14T23:39:23.068Z,25.23
2023-02-14T23:41:50.370Z,26.42
2023-02-14T23:44:18.709Z,25.27
2023-02-14T23:46:46.191Z,24.55
2023-02-14T23:49:13.683Z,24.50
2023-02-14T23:51:40.870Z,24.45
2023-02-14T23:54:08.382Z,25.17
2023-02-14T23:56:35.856Z,25.23
2023-02-14T23:59:03.117Z,26.48
